Hauptseite
METAR-TAF:

METAR-TAF

Flughäfen :

Woodvale, England

Breite: 53-34-54N, Länge: 003-03-20W, Höhe: 11 m

Beobachtung

Neuester Wetterbericht von vor 1 Stunde und 11 Minuten, um 08:50 UTC
Wind 4 kt aus Ost/Südost
Temperatur 2°C
Luftfeuchtigkeit 64%
Luftdruck 1030 hPa
Sichtweite 10 km oder mehr
keine Wolken unter 1500 m und keine Kumulonimbus oder Gewitterwolken

METAR: EGOW 250850Z 11004KT CAVOK 02/M04 Q1030 BLU

Zeit: 10:01 (10:01 UTC)


TAF: fehlend

Wetterbeobachtungen und Prognosen von mehr als 4000 Flughäfen (METAR und TAF Bericht).

Die verfügbaren Stationen werden durch gelbe und rote Markierungen auf der Karte dargestellt.

Führen Sie die Maus auf sie, um den Namen der Station zu sehen.

Darauf klicken, um die Beobachtung von Wetterbeobachtungen und Prognosen zu sehen.

Um die Karte zu ändern : klicken Sie auf den grünen Tasten mit einem schwarzen Kreuz Zum Vergrößern, auf den grünen Button mit einem Gedankenstrich zu verkleinern, oder auf die grünen Pfeile für benachbarte Karten.


METAR-TAF: